Terminal Aerodrome Forecast
Issued by NWS Amarillo, TX

Home | Current Version | Previous Version | Text Only | Print | Product List | Glossary On
Versions: 1 2 3 4 5 6 7 8 9 10 11 12 13
000
FTUS44 KAMA 201700
TAFGUY
TAF
KGUY 201720Z 2018/2118 11008KT P6SM BKN150
     FM210800 VRB03KT 1SM BR FEW010
     FM211500 21007KT P6SM FEW030=

USA.gov is the U.S. government's official web portal to all federal, state and local government web resources and services.